Armavir, Russia

11:03 PM MSK on September 02, 2014 (GMT +0400)
Shpakovskoye | Change Station
CLOSE
Current Station
Airport
Location: Stavropol',
Elevation: 1483 ft
Nearby Weather Stations

Elev 1483 ft 45.12 °N, 42.08 °E | Updated 33 minutes ago

Clear
Clear
72 °F
Feels Like 72 °F
N
25
Wind Variable Wind from East
Gusts 31 mph

Today
High -- | Low -- °F
--% Chance of Precip.
Yesterday
High -- | Low -- °F
Precip. -- in
6:38 AM 7:51 PM
First Quarter, 54% visible
Pressure 29.95 in
Visibility -9999.0 miles
Clouds
Dew Point 59 °F
Humidity 64%
Rainfall 0.00 in
Snow Depth Not available.
UV Not available.
Pollen Not available.
Air Quality Not available.
Flu Activity Not available.
METAR URMT 021830Z 10011G14MPS CAVOK 22/15 Q1014 NOSIG RMK QFE720 SC070

More Conditions Fewer Conditions

Pressure 29.95 in
Visibility -9999.0 miles
Clouds
Dew Point 59 °F
Humidity 64%
Rainfall 0.00 in
Snow Depth Not available.
UV Not available.
Pollen Not available.
Air Quality Not available.
Flu Activity Not available.
METAR URMT 021830Z 10011G14MPS CAVOK 22/15 Q1014 NOSIG RMK QFE720 SC070

More Conditions Fewer Conditions

10-Day Weather Forecast

Almanac

Astronomy

Sep. 02, 2014 Rise Set
Actual Time 6:38 AM MSK 7:51 PM MSK
Civil Twilight 6:08 AM MSK 8:21 PM MSK
Nautical Twilight 5:31 AM MSK 8:57 PM MSK
Astronomical Twilight 4:53 AM MSK 9:36 PM MSK
Moon 2:20 PM MSK No Moon Set
Length of Visible Light 14h 13m
Length of Day
13h 13m
Tomorrow will be 3m 1s shorter.
First Quarter, 54% of the Moon is Illuminated
Today
First Quarter
Sep 8
Full
Sep 15
Last Quarter
Sep 24
New
Oct 1
First Quarter

Today's Extremes

Country Highs Country Lows

Community

WunderPhotos

Upload Photos

1,749,745 photos uploaded!

WunderBlogs® & News

By Dr. Jeff Masters
Director of Meteorology, Weather Underground
By Kari Strenfel
Meteorologist, Weather Underground
By Christopher C. Burt
Weather Historian, Weather Underground
September 2, 2014
September 2, 2014
September 2, 2014

Nearby

Snow Depth

Not available.

Earthquake Activity

City Distance Mag. Time & Date
No recent earthquake activity has been reported nearby.
Minimum magnitude displayed is 2.5.

Coastal Water Temperatures

Place Temperature
No Stations Reporting

Nearby Weather Stations